Time;durP1;ratioP1;P1;durP2;ratioP2;P2;SDS_P1;SDS_P2;PMS_P1;PMS_P2;Temp;Humidity;BMP_temperature;BMP_pressure;BME280_temperature;BME280_humidity;BME280_pressure;Samples;Min_cycle;Max_cycle;Signal;HPM_P1;HPM_P2
2022/01/20 00:00:49;;;;;;;8.43;2.05;;;16.30;42.60;;;;;;5101816;28;20018;-38
2022/01/20 00:03:19;;;;;;;7.85;2.55;;;16.30;42.60;;;;;;5101076;28;20023;-39
2022/01/20 00:27:20;;;;;;;9.82;2.50;;;16.30;42.70;;;;;;5099562;28;20517;-37
2022/01/20 00:32:21;;;;;;;7.55;2.25;;;16.30;42.80;;;;;;5099974;28;20028;-38
2022/01/20 00:35:10;;;;;;;6.72;1.98;;;16.30;42.80;;;;;;5100847;28;20137;-38
2022/01/20 00:37:39;;;;;;;6.30;2.13;;;16.30;43.00;;;;;;5099919;28;20016;-38
2022/01/20 00:40:06;;;;;;;7.50;2.00;;;16.30;42.80;;;;;;5099930;28;20012;-38
2022/01/20 00:42:32;;;;;;;7.63;2.05;;;16.30;42.90;;;;;;5082756;28;20132;-39
2022/01/20 00:44:58;;;;;;;8.27;2.30;;;16.30;42.90;;;;;;5100655;28;20012;-38
2022/01/20 00:47:25;;;;;;;7.93;2.05;;;16.30;42.90;;;;;;5082900;28;20043;-40
2022/01/20 00:49:51;;;;;;;7.63;2.50;;;16.20;42.90;;;;;;5101547;28;20085;-37
2022/01/20 00:52:17;;;;;;;5.72;1.83;;;16.20;42.90;;;;;;5101315;28;20074;-38
2022/01/20 00:54:43;;;;;;;7.35;2.00;;;16.20;43.00;;;;;;5100594;28;20047;-39
2022/01/20 00:57:10;;;;;;;7.47;2.20;;;16.20;43.00;;;;;;5100722;28;20482;-38
2022/01/20 00:59:36;;;;;;;7.20;2.20;;;16.20;43.00;;;;;;5100888;28;20024;-39
2022/01/20 01:02:05;;;;;;;6.15;2.35;;;16.20;43.10;;;;;;5100710;28;20467;-38
2022/01/20 01:04:31;;;;;;;6.63;2.08;;;16.20;43.10;;;;;;5101063;28;20091;-38
2022/01/20 01:09:22;;;;;;;6.07;1.80;;;16.20;43.10;;;;;;5101416;28;20076;-38
2022/01/20 01:11:50;;;;;;;9.07;2.33;;;16.20;43.10;;;;;;5100893;28;20047;-37
2022/01/20 01:14:18;;;;;;;8.23;2.00;;;16.20;43.20;;;;;;5081942;28;20016;-38
2022/01/20 01:24:43;;;;;;;6.20;1.95;;;16.20;43.20;;;;;;5099793;28;20020;-38
2022/01/20 01:27:11;;;;;;;6.70;2.22;;;16.20;43.20;;;;;;5099031;28;20020;-37
2022/01/20 01:30:06;;;;;;;8.02;2.40;;;16.20;43.20;;;;;;5098914;28;20158;-37
2022/01/20 01:32:50;;;;;;;8.27;2.13;;;16.10;43.10;;;;;;5099913;28;20096;-37
2022/01/20 01:35:18;;;;;;;5.95;2.00;;;16.20;43.20;;;;;;5099991;28;20016;-37
2022/01/20 01:40:25;;;;;;;8.80;2.42;;;16.10;43.20;;;;;;5099148;28;20055;-39
2022/01/20 01:42:52;;;;;;;8.18;2.38;;;16.10;43.20;;;;;;5099532;28;20013;-38
2022/01/20 01:45:25;;;;;;;6.88;2.17;;;16.20;43.20;;;;;;5099952;28;20016;-38
2022/01/20 01:47:51;;;;;;;9.55;2.45;;;16.10;43.20;;;;;;5082138;28;20024;-39
2022/01/20 01:50:17;;;;;;;8.57;2.35;;;16.10;43.20;;;;;;5099046;28;20016;-38
2022/01/20 01:52:43;;;;;;;7.93;2.33;;;16.10;43.20;;;;;;5081208;28;20023;-37
2022/01/20 01:55:10;;;;;;;6.65;2.30;;;16.10;43.30;;;;;;5098276;28;20047;-37
2022/01/20 01:57:35;;;;;;;8.18;2.10;;;16.10;43.30;;;;;;5098691;28;20102;-37
2022/01/20 02:00:03;;;;;;;7.22;2.13;;;16.10;43.30;;;;;;5080738;28;20013;-38
2022/01/20 02:02:30;;;;;;;7.75;2.42;;;16.10;43.40;;;;;;5098625;28;20024;-38
2022/01/20 02:04:58;;;;;;;9.27;2.28;;;16.10;43.40;;;;;;5098234;28;20016;-37
2022/01/20 02:18:12;;;;;;;5.68;2.03;;;16.10;43.40;;;;;;5097688;28;20031;-37
2022/01/20 02:20:39;;;;;;;7.85;2.10;;;16.10;43.40;;;;;;5100911;28;20063;-38
2022/01/20 02:23:05;;;;;;;7.75;2.30;;;16.10;43.40;;;;;;5101078;28;20022;-38
2022/01/20 02:25:34;;;;;;;7.75;2.53;;;16.10;43.50;;;;;;5100752;28;20009;-38
2022/01/20 02:28:02;;;;;;;;;;;16.10;43.50;;;;;;5100950;28;20467;-38
2022/01/20 02:30:28;;;;;;;9.05;2.28;;;16.10;43.50;;;;;;5101314;28;19949;-37
2022/01/20 02:33:01;;;;;;;6.47;2.13;;;16.00;43.60;;;;;;5100404;28;20024;-37
2022/01/20 02:35:29;;;;;;;6.60;1.90;;;16.00;43.60;;;;;;5100316;28;20020;-39
2022/01/20 02:38:00;;;;;;;6.38;2.30;;;16.00;43.60;;;;;;5099456;28;20459;-37
2022/01/20 02:44:50;;;;;;;9.13;2.50;;;16.00;43.60;;;;;;5099560;28;20021;-37
2022/01/20 02:46:08;;;;;;;8.35;2.22;;;16.00;43.70;;;;;;5099905;28;20084;-37
2022/01/20 02:48:34;;;;;;;5.55;1.70;;;16.00;43.60;;;;;;5100052;28;20390;-38
2022/01/20 02:51:00;;;;;;;6.22;2.00;;;16.00;43.60;;;;;;5099847;28;20055;-37
2022/01/20 02:53:26;;;;;;;8.05;2.03;;;16.00;43.60;;;;;;5099813;28;20144;-37
2022/01/20 02:55:52;;;;;;;7.10;2.20;;;16.00;43.70;;;;;;5081469;28;20478;-38
2022/01/20 02:58:19;;;;;;;5.22;1.92;;;16.00;43.60;;;;;;5099833;28;20026;-38
2022/01/20 03:00:46;;;;;;;5.82;1.80;;;16.00;43.70;;;;;;5099370;28;20027;-39
2022/01/20 03:03:13;;;;;;;6.28;2.13;;;16.00;43.60;;;;;;5099573;28;20024;-38
2022/01/20 03:05:38;;;;;;;6.45;2.20;;;16.00;43.60;;;;;;5100062;28;20061;-38
2022/01/20 03:08:05;;;;;;;5.25;1.90;;;16.00;43.60;;;;;;5100108;28;20067;-38
2022/01/20 03:10:31;;;;;;;5.80;1.70;;;16.00;43.60;;;;;;5100632;28;20040;-38
2022/01/20 03:12:58;;;;;;;4.22;1.63;;;16.00;43.50;;;;;;5082581;28;20071;-37
2022/01/20 03:15:24;;;;;;;6.57;1.90;;;16.00;43.70;;;;;;5100678;28;20149;-37
2022/01/20 03:17:50;;;;;;;4.93;1.65;;;16.00;43.50;;;;;;5100403;28;20020;-38
2022/01/20 03:20:17;;;;;;;5.03;1.85;;;15.90;43.50;;;;;;5100685;28;20024;-37
2022/01/20 03:22:44;;;;;;;4.53;1.92;;;15.90;43.50;;;;;;5100463;28;20016;-37
2022/01/20 03:25:11;;;;;;;6.63;1.75;;;16.00;43.60;;;;;;5101210;28;20104;-37
2022/01/20 03:27:38;;;;;;;7.60;2.00;;;15.90;43.50;;;;;;5100863;28;20092;-38
2022/01/20 03:30:05;;;;;;;5.75;1.80;;;16.00;43.50;;;;;;5100567;28;20048;-37
2022/01/20 03:32:30;;;;;;;4.28;1.60;;;16.00;43.50;;;;;;5100368;28;20024;-37
2022/01/20 03:34:57;;;;;;;5.47;1.70;;;15.90;43.40;;;;;;5100287;28;20039;-37
2022/01/20 03:37:23;;;;;;;5.20;1.48;;;15.90;43.50;;;;;;5099726;28;20016;-37
2022/01/20 03:39:50;;;;;;;5.38;1.60;;;15.90;43.50;;;;;;5099575;28;20031;-37
2022/01/20 03:42:15;;;;;;;5.22;1.50;;;15.90;43.50;;;;;;5098855;28;20020;-38
2022/01/20 03:44:41;;;;;;;5.60;1.75;;;15.90;43.50;;;;;;5099503;28;20534;-39
2022/01/20 03:47:09;;;;;;;5.82;1.60;;;15.90;43.50;;;;;;5100113;28;20471;-37
2022/01/20 03:49:40;;;;;;;5.43;1.40;;;15.90;43.50;;;;;;5099383;28;20028;-37
2022/01/20 03:52:07;;;;;;;5.07;1.73;;;15.90;43.50;;;;;;5099506;28;20016;-37
2022/01/20 03:54:33;;;;;;;5.63;1.80;;;15.90;43.40;;;;;;5100594;28;20047;-38
2022/01/20 03:57:00;;;;;;;5.30;1.38;;;15.90;43.40;;;;;;5101056;28;20011;-37
2022/01/20 03:59:25;;;;;;;4.35;1.25;;;15.90;43.50;;;;;;5101114;28;20477;-38
2022/01/20 04:01:52;;;;;;;5.22;1.77;;;15.90;43.50;;;;;;5102389;28;20110;-38
2022/01/20 04:04:18;;;;;;;4.50;1.48;;;15.90;43.50;;;;;;5084108;28;20040;-38
2022/01/20 04:06:44;;;;;;;4.03;1.40;;;15.90;43.40;;;;;;5102902;28;20032;-39
2022/01/20 04:09:10;;;;;;;4.97;1.42;;;15.90;43.40;;;;;;5101612;28;20024;-38
2022/01/20 04:11:36;;;;;;;6.28;1.33;;;15.90;43.40;;;;;;5082468;28;20027;-37
2022/01/20 04:14:03;;;;;;;4.38;1.30;;;15.90;43.40;;;;;;5100483;28;20036;-38
2022/01/20 04:16:38;;;;;;;3.20;1.13;;;15.90;43.40;;;;;;5099812;28;20048;-39
2022/01/20 04:19:09;;;;;;;4.75;1.45;;;15.90;43.30;;;;;;5099800;28;20051;-38
2022/01/20 04:21:35;;;;;;;6.57;1.52;;;16.00;43.20;;;;;;5098814;28;20032;-37
2022/01/20 04:24:07;;;;;;;4.80;1.30;;;16.10;43.10;;;;;;5099057;28;20012;-37
2022/01/20 04:26:35;;;;;;;4.28;1.20;;;16.10;43.00;;;;;;5098683;28;20024;-37
2022/01/20 04:29:01;;;;;;;4.72;1.40;;;16.10;43.10;;;;;;5098045;28;20386;-38
2022/01/20 04:31:30;;;;;;;4.40;1.58;;;16.20;42.80;;;;;;5098490;28;20020;-38
2022/01/20 04:33:56;;;;;;;4.97;1.40;;;16.30;42.40;;;;;;5098087;28;20012;-37
2022/01/20 04:36:23;;;;;;;4.45;1.45;;;16.50;42.30;;;;;;5079547;28;20041;-37
2022/01/20 04:38:49;;;;;;;3.78;1.30;;;16.60;42.00;;;;;;5097058;28;20024;-37
2022/01/20 04:41:15;;;;;;;3.90;1.30;;;16.60;41.80;;;;;;5063025;28;20012;-37
2022/01/20 04:43:40;;;;;;;4.15;1.30;;;16.60;41.80;;;;;;5078059;28;20028;-38
2022/01/20 04:46:14;;;;;;;4.00;1.30;;;16.70;41.60;;;;;;5096808;28;20074;-37
2022/01/20 04:59:21;;;;;;;3.58;1.27;;;17.20;40.60;;;;;;5099202;28;20552;-38
2022/01/20 05:01:48;;;;;;;2.85;1.20;;;17.30;40.30;;;;;;5099004;28;20024;-38
2022/01/20 05:04:14;;;;;;;3.97;1.10;;;17.40;40.10;;;;;;5098873;28;20061;-39
2022/01/20 05:06:43;;;;;;;3.28;1.20;;;17.50;39.90;;;;;;5098944;28;20024;-38
2022/01/20 05:09:11;;;;;;;3.42;1.10;;;17.60;39.80;;;;;;5098905;28;20094;-39
2022/01/20 05:11:42;;;;;;;3.28;1.30;;;17.70;39.60;;;;;;5098451;28;20016;-37
2022/01/20 05:14:08;;;;;;;3.85;1.20;;;17.80;39.40;;;;;;5096646;28;20012;-38
2022/01/20 05:16:34;;;;;;;4.32;1.42;;;17.90;39.20;;;;;;5097051;28;20019;-38
2022/01/20 05:19:03;;;;;;;4.05;1.30;;;18.00;39.00;;;;;;5097125;28;20024;-38
2022/01/20 05:21:30;;;;;;;3.13;1.20;;;18.10;38.90;;;;;;5096867;28;20036;-38
2022/01/20 05:23:56;;;;;;;3.45;1.08;;;18.20;38.70;;;;;;5096252;28;20016;-38
2022/01/20 05:26:22;;;;;;;3.78;1.42;;;18.20;38.50;;;;;;5077412;28;20363;-38
2022/01/20 05:28:48;;;;;;;4.25;1.17;;;18.30;38.40;;;;;;5097160;28;20024;-38
2022/01/20 05:31:14;;;;;;;3.78;1.17;;;18.40;38.10;;;;;;5096781;28;20023;-39
2022/01/20 05:33:40;;;;;;;4.28;1.20;;;18.50;38.10;;;;;;5095584;28;20020;-37
2022/01/20 05:36:06;;;;;;;3.95;1.35;;;18.50;38.00;;;;;;5094845;28;20024;-38
2022/01/20 05:38:33;;;;;;;5.05;1.30;;;18.60;37.80;;;;;;5095211;28;20149;-38
2022/01/20 05:40:59;;;;;;;3.42;1.10;;;18.70;37.60;;;;;;5094928;28;20032;-38
2022/01/20 05:43:25;;;;;;;4.03;1.45;;;18.80;37.50;;;;;;5094559;28;20024;-39
2022/01/20 05:45:51;;;;;;;4.15;1.00;;;18.80;37.30;;;;;;5094633;28;20172;-38
2022/01/20 05:48:21;;;;;;;3.22;1.20;;;18.90;37.20;;;;;;5095222;28;20053;-38
2022/01/20 05:50:47;;;;;;;4.60;1.27;;;19.00;37.00;;;;;;5095867;28;20016;-38
2022/01/20 05:53:13;;;;;;;3.45;1.30;;;19.00;36.80;;;;;;5096521;28;20012;-38
2022/01/20 05:55:39;;;;;;;3.53;1.17;;;19.10;36.80;;;;;;5097230;28;20040;-39
2022/01/20 05:58:06;;;;;;;3.10;1.10;;;19.10;36.60;;;;;;5078990;28;20012;-39
2022/01/20 06:00:33;;;;;;;2.95;1.10;;;19.20;36.50;;;;;;5097524;28;20020;-39
2022/01/20 06:05:43;;;;;;;4.72;1.30;;;19.30;36.30;;;;;;5096844;28;20096;-38
2022/01/20 06:08:10;;;;;;;3.70;1.40;;;19.30;36.10;;;;;;5078201;28;20020;-38
2022/01/20 06:10:36;;;;;;;5.47;1.42;;;19.40;36.00;;;;;;5078701;28;20016;-38
2022/01/20 06:13:02;;;;;;;3.80;1.48;;;19.50;35.90;;;;;;5077326;28;20028;-37
2022/01/20 06:15:29;;;;;;;3.92;1.25;;;19.50;35.80;;;;;;5096197;28;20065;-37
2022/01/20 06:17:55;;;;;;;4.95;1.23;;;19.60;36.20;;;;;;5094648;28;20012;-38
2022/01/20 06:20:21;;;;;;;4.97;1.20;;;19.60;35.60;;;;;;5093785;28;20024;-37
2022/01/20 06:22:46;;;;;;;4.32;1.35;;;19.60;35.50;;;;;;5076128;28;20073;-38
2022/01/20 06:25:12;;;;;;;4.03;1.20;;;19.60;35.40;;;;;;5094664;28;20402;-39
2022/01/20 06:27:38;;;;;;;5.65;1.38;;;19.60;35.10;;;;;;5094579;28;20020;-37
2022/01/20 06:30:06;;;;;;;4.53;1.20;;;19.60;35.00;;;;;;5095012;28;20020;-38
2022/01/20 06:32:32;;;;;;;7.25;1.52;;;19.70;35.00;;;;;;5095127;28;20111;-37
2022/01/20 06:34:58;;;;;;;4.57;1.23;;;19.70;34.90;;;;;;5094890;28;20012;-38
2022/01/20 06:37:23;;;;;;;5.22;1.33;;;19.80;34.70;;;;;;5095058;28;20554;-39
2022/01/20 06:39:50;;;;;;;6.10;1.48;;;19.80;34.60;;;;;;5095136;28;20032;-37
2022/01/20 06:42:16;;;;;;;5.63;1.40;;;19.80;34.50;;;;;;5076447;28;20067;-37
2022/01/20 06:44:42;;;;;;;4.65;1.30;;;19.90;34.50;;;;;;5060743;28;20049;-38
2022/01/20 06:47:08;;;;;;;6.40;1.85;;;19.90;34.30;;;;;;5095278;28;20101;-38
2022/01/20 06:49:34;;;;;;;5.90;1.20;;;20.00;34.30;;;;;;5096118;28;20030;-38
2022/01/20 06:52:00;;;;;;;7.20;1.27;;;20.00;34.20;;;;;;5095964;28;20024;-39
2022/01/20 06:54:26;;;;;;;4.22;1.25;;;20.10;34.10;;;;;;5063339;28;20041;-39
2022/01/20 06:56:51;;;;;;;4.25;1.30;;;20.20;34.00;;;;;;5054225;28;20017;-38
2022/01/20 06:59:20;;;;;;;5.15;1.70;;;20.30;33.90;;;;;;5054872;28;20053;-38
2022/01/20 07:01:47;;;;;;;4.22;1.20;;;20.40;33.80;;;;;;5055180;28;20020;-37
2022/01/20 07:04:13;;;;;;;6.40;1.40;;;20.40;33.70;;;;;;5055834;28;20013;-38
2022/01/20 07:06:40;;;;;;;4.10;1.15;;;20.50;33.60;;;;;;5057553;28;20009;-37
2022/01/20 07:09:10;;;;;;;4.05;1.10;;;20.50;34.10;;;;;;5058322;28;20140;-37
2022/01/20 07:11:39;;;;;;;4.53;1.40;;;20.60;33.50;;;;;;5058346;28;20053;-37
2022/01/20 07:14:05;;;;;;;4.72;1.15;;;20.60;33.40;;;;;;5055148;28;20020;-37
2022/01/20 07:16:31;;;;;;;5.18;1.70;;;20.70;33.40;;;;;;5055302;28;20022;-37
2022/01/20 07:18:57;;;;;;;4.75;1.40;;;20.70;33.30;;;;;;5056467;28;20371;-37
2022/01/20 07:21:24;;;;;;;4.57;1.20;;;20.70;33.30;;;;;;5052051;28;20021;-38
2022/01/20 07:23:50;;;;;;;4.18;1.20;;;20.80;33.30;;;;;;5052895;28;20496;-36
2022/01/20 07:26:16;;;;;;;6.63;1.40;;;20.80;33.80;;;;;;5053324;28;20017;-37
2022/01/20 07:28:44;;;;;;;6.93;1.25;;;20.60;33.70;;;;;;5054354;28;20029;-37
2022/01/20 07:31:16;;;;;;;8.57;1.35;;;20.30;34.70;;;;;;5055205;28;20020;-38
2022/01/20 07:33:44;;;;;;;7.47;1.73;;;20.00;35.80;;;;;;5056560;28;20017;-38
2022/01/20 07:36:10;;;;;;;11.48;1.38;;;19.80;36.30;;;;;;5055389;28;20086;-37
2022/01/20 07:38:38;;;;;;;6.60;1.52;;;19.70;36.80;;;;;;5055511;28;20452;-37
2022/01/20 07:41:07;;;;;;;5.53;1.17;;;19.60;37.20;;;;;;5055784;28;20040;-37
2022/01/20 07:43:32;;;;;;;6.07;1.63;;;19.60;37.20;;;;;;5056412;28;20009;-37
2022/01/20 07:46:00;;;;;;;6.97;1.50;;;19.50;37.30;;;;;;5054142;28;20503;-37
2022/01/20 07:48:26;;;;;;;8.35;1.40;;;19.50;37.20;;;;;;5054293;28;20024;-38
2022/01/20 07:50:54;;;;;;;7.45;1.50;;;19.50;37.10;;;;;;5055160;28;20025;-37
2022/01/20 07:53:21;;;;;;;4.05;1.20;;;19.50;37.20;;;;;;5061705;28;20029;-37
2022/01/20 07:55:50;;;;;;;8.57;1.63;;;19.50;37.20;;;;;;5096477;28;20015;-38
2022/01/20 07:58:16;;;;;;;8.15;1.67;;;19.50;37.20;;;;;;5096027;28;20066;-36
2022/01/20 08:00:41;;;;;;;10.38;1.45;;;19.50;37.10;;;;;;5096413;28;20032;-37
2022/01/20 08:03:09;;;;;;;8.63;1.77;;;19.50;37.20;;;;;;5060564;28;20039;-37
2022/01/20 08:05:35;;;;;;;7.07;1.75;;;19.40;37.00;;;;;;5077498;28;20038;-37
2022/01/20 08:08:01;;;;;;;10.07;2.08;;;19.40;37.10;;;;;;5095848;28;20024;-36
2022/01/20 08:10:28;;;;;;;11.45;2.20;;;19.50;37.00;;;;;;5095657;28;20479;-37
2022/01/20 08:12:54;;;;;;;14.52;2.15;;;19.50;36.90;;;;;;5095188;28;20012;-38
2022/01/20 08:15:24;;;;;;;8.52;1.88;;;19.50;36.60;;;;;;5094670;28;20016;-37
2022/01/20 08:17:49;;;;;;;;;;;19.50;36.50;;;;;;5076774;28;20436;-37
2022/01/20 08:20:18;;;;;;;15.10;1.73;;;19.60;36.30;;;;;;5076451;28;19975;-37
2022/01/20 08:22:48;;;;;;;12.48;2.20;;;19.70;36.10;;;;;;5094383;28;20359;-37
2022/01/20 08:25:17;;;;;;;;;;;19.80;35.90;;;;;;5095552;28;20039;-36
2022/01/20 08:27:46;;;;;;;8.48;1.70;;;19.90;35.80;;;;;;5094997;28;19908;-38
2022/01/20 08:30:18;;;;;;;11.33;1.93;;;20.00;35.50;;;;;;5077938;28;20020;-38
2022/01/20 08:42:50;;;;;;;10.77;2.30;;;19.90;35.10;;;;;;5094609;28;20131;-36
2022/01/20 08:45:21;;;;;;;10.68;2.38;;;19.80;35.50;;;;;;5095055;28;20019;-36
2022/01/20 08:47:49;;;;;;;10.02;2.25;;;19.70;34.80;;;;;;5094228;28;20018;-36
2022/01/20 08:50:15;;;;;;;9.15;2.30;;;19.60;34.80;;;;;;5094489;28;20107;-35
2022/01/20 08:52:41;;;;;;;10.13;2.33;;;19.50;34.90;;;;;;5076456;28;20054;-35
2022/01/20 08:55:07;;;;;;;13.65;2.67;;;19.50;35.10;;;;;;5054983;28;20041;-36
2022/01/20 08:57:33;;;;;;;9.95;2.63;;;19.50;35.20;;;;;;5054426;28;20039;-36
2022/01/20 08:59:59;;;;;;;13.23;2.90;;;19.50;35.10;;;;;;5053976;28;20025;-35
2022/01/20 09:02:25;;;;;;;12.68;2.53;;;19.50;35.20;;;;;;5054097;28;20109;-36
2022/01/20 09:04:51;;;;;;;10.75;2.20;;;19.40;35.10;;;;;;5052714;28;20432;-37
2022/01/20 09:07:17;;;;;;;15.57;2.70;;;19.40;35.00;;;;;;5052888;28;20029;-36
2022/01/20 09:09:47;;;;;;;15.80;2.67;;;19.40;35.50;;;;;;5053717;28;20411;-37
2022/01/20 09:15:27;;;;;;;21.45;2.72;;;19.30;36.00;;;;;;5053536;28;20024;-38
2022/01/20 09:17:56;;;;;;;13.82;2.83;;;19.30;36.80;;;;;;5051325;28;20040;-35
2022/01/20 09:20:22;;;;;;;22.95;3.10;;;19.20;36.90;;;;;;5051038;28;20051;-35
2022/01/20 09:22:48;;;;;;;21.75;3.22;;;19.30;37.20;;;;;;5053373;28;20013;-35
2022/01/20 09:25:16;;;;;;;17.00;2.83;;;19.30;37.10;;;;;;5054350;28;20024;-36
2022/01/20 09:27:44;;;;;;;17.08;3.42;;;19.30;36.80;;;;;;5052484;28;20498;-35
2022/01/20 09:30:17;;;;;;;19.30;3.13;;;19.40;36.50;;;;;;5052160;28;20119;-36
2022/01/20 09:32:43;;;;;;;16.17;3.40;;;19.50;36.40;;;;;;5053162;28;20028;-35
2022/01/20 09:35:09;;;;;;;14.30;2.42;;;19.50;36.10;;;;;;5052746;28;20017;-35
2022/01/20 09:37:38;;;;;;;9.02;2.42;;;19.50;35.70;;;;;;5052676;28;20036;-35
2022/01/20 09:40:05;;;;;;;15.20;2.40;;;19.50;35.30;;;;;;5052679;28;20017;-35
2022/01/20 09:42:34;;;;;;;14.95;2.15;;;19.50;34.90;;;;;;5052959;28;20500;-35
2022/01/20 09:45:00;;;;;;;7.88;2.17;;;19.40;34.90;;;;;;5052250;28;20017;-36
2022/01/20 09:47:26;;;;;;;14.57;2.17;;;19.40;34.50;;;;;;5053430;28;20024;-37
2022/01/20 09:49:55;;;;;;;15.73;2.35;;;19.40;34.30;;;;;;5052813;28;20029;-35
2022/01/20 09:52:24;;;;;;;8.90;1.98;;;19.30;34.00;;;;;;5051727;28;20009;-35
2022/01/20 09:54:52;;;;;;;8.57;1.70;;;19.40;33.70;;;;;;5082726;28;20032;-36
2022/01/20 09:57:18;;;;;;;11.00;1.92;;;19.40;33.50;;;;;;5093264;28;20269;-35
2022/01/20 09:59:44;;;;;;;11.50;2.08;;;19.40;33.40;;;;;;5092741;28;20020;-35
2022/01/20 10:02:17;;;;;;;14.95;1.58;;;19.40;32.80;;;;;;5092737;28;20012;-36
2022/01/20 10:04:43;;;;;;;12.02;1.70;;;19.40;32.60;;;;;;5076142;28;20052;-35
2022/01/20 10:07:12;;;;;;;8.25;1.67;;;19.40;32.40;;;;;;5093313;28;20049;-35
2022/01/20 10:09:41;;;;;;;15.70;1.63;;;19.30;32.30;;;;;;5092802;28;20024;-36
2022/01/20 10:12:14;;;;;;;15.23;1.80;;;19.20;32.60;;;;;;5092949;28;20065;-36
2022/01/20 10:14:50;;;;;;;16.73;2.28;;;19.30;32.80;;;;;;5093045;28;20133;-35
2022/01/20 10:17:24;;;;;;;9.95;1.75;;;19.30;32.70;;;;;;5093387;28;20006;-35
2022/01/20 10:19:57;;;;;;;10.07;1.42;;;19.30;32.80;;;;;;5093243;28;20031;-35
2022/01/20 10:22:28;;;;;;;6.40;1.50;;;19.30;32.90;;;;;;5093787;28;20051;-35
2022/01/20 10:24:59;;;;;;;7.38;1.35;;;19.10;32.80;;;;;;5076234;28;20108;-35
2022/01/20 10:27:32;;;;;;;11.77;1.63;;;19.10;32.60;;;;;;5093515;28;20024;-38
2022/01/20 10:30:00;;;;;;;8.65;1.60;;;19.10;32.60;;;;;;5093213;28;20047;-37
2022/01/20 10:32:26;;;;;;;8.20;1.83;;;19.00;32.60;;;;;;5092768;28;20000;-38
2022/01/20 10:35:03;;;;;;;10.40;1.70;;;19.00;32.60;;;;;;5075539;28;20020;-37
2022/01/20 10:37:30;;;;;;;6.05;1.27;;;19.00;32.70;;;;;;5094020;28;20084;-37
2022/01/20 10:40:07;;;;;;;8.88;1.38;;;19.00;32.80;;;;;;5093729;28;20063;-37
2022/01/20 10:42:45;;;;;;;7.85;1.70;;;19.00;32.90;;;;;;5097521;28;20016;-37
2022/01/20 10:45:22;;;;;;;6.32;1.23;;;19.00;33.00;;;;;;5079502;28;20085;-37
2022/01/20 10:47:49;;;;;;;8.70;1.65;;;19.10;33.00;;;;;;5097363;28;20016;-37
2022/01/20 10:50:27;;;;;;;7.53;1.48;;;19.10;32.90;;;;;;5097593;28;20020;-37
2022/01/20 10:52:54;;;;;;;7.55;1.58;;;19.10;33.60;;;;;;5097693;28;20019;-37
2022/01/20 10:55:28;;;;;;;8.45;1.65;;;19.20;33.10;;;;;;5096946;28;20493;-37
2022/01/20 10:57:55;;;;;;;5.10;1.42;;;19.20;33.10;;;;;;5097415;28;20019;-37
2022/01/20 11:00:52;;;;;;;10.40;1.98;;;19.30;33.00;;;;;;5080570;28;20020;-37
2022/01/20 11:07:08;;;;;;;;;;;;;;;;;;;;;
2022/01/20 11:09:58;;;;;;;11.90;2.03;;;19.90;32.60;;;;;;4957362;29;20031;-38
2022/01/20 11:13:19;;;;;;;8.75;1.80;;;20.30;32.10;;;;;;4942959;29;20023;-37
2022/01/20 11:16:21;;;;;;;7.88;1.23;;;20.60;31.70;;;;;;4954684;29;20122;-38
2022/01/20 11:18:47;;;;;;;6.10;1.40;;;20.80;31.20;;;;;;4956646;29;20035;-37
2022/01/20 11:21:23;;;;;;;7.18;1.48;;;20.90;30.90;;;;;;4956810;29;20463;-37
2022/01/20 11:23:48;;;;;;;9.02;1.83;;;21.00;30.80;;;;;;4956252;29;20046;-37
2022/01/20 11:26:14;;;;;;;5.75;1.52;;;21.10;30.70;;;;;;4939939;29;20039;-37
2022/01/20 11:28:40;;;;;;;7.10;1.38;;;21.10;30.50;;;;;;4940696;29;20043;-36
2022/01/20 11:31:08;;;;;;;8.38;1.92;;;21.10;30.40;;;;;;4956672;29;20439;-37
2022/01/20 11:33:41;;;;;;;6.32;1.40;;;21.20;30.40;;;;;;4956003;29;20024;-37
2022/01/20 11:36:09;;;;;;;9.48;1.63;;;21.20;30.40;;;;;;4940486;29;20039;-37
2022/01/20 11:38:45;;;;;;;8.07;1.50;;;21.20;30.30;;;;;;4956399;28;20043;-37
2022/01/20 11:41:13;;;;;;;10.38;1.60;;;21.30;30.20;;;;;;4955759;29;20055;-37
2022/01/20 11:43:45;;;;;;;8.95;1.77;;;21.40;30.20;;;;;;4995410;28;20069;-37
2022/01/20 11:46:15;;;;;;;9.82;1.77;;;21.40;30.10;;;;;;5058348;28;20037;-37
2022/01/20 11:48:52;;;;;;;10.63;1.42;;;21.30;30.00;;;;;;5096544;28;20020;-37
2022/01/20 11:51:21;;;;;;;9.18;1.73;;;21.30;30.10;;;;;;5095635;28;20431;-37
2022/01/20 11:54:00;;;;;;;8.73;1.70;;;21.30;30.10;;;;;;5095323;28;20517;-37
2022/01/20 11:57:03;;;;;;;9.70;1.97;;;21.20;30.40;;;;;;5096029;28;20009;-37
2022/01/20 11:59:34;;;;;;;14.18;3.28;;;18.70;33.70;;;;;;5095543;28;20020;-38
2022/01/20 12:01:59;;;;;;;17.27;5.13;;;17.00;37.70;;;;;;5061887;28;20099;-37
2022/01/20 12:04:40;;;;;;;26.73;7.18;;;16.50;38.90;;;;;;5076683;28;20031;-36
2022/01/20 12:07:06;;;;;;;22.27;8.65;;;16.20;39.20;;;;;;5094485;28;20427;-37
2022/01/20 12:09:38;;;;;;;25.20;7.13;;;16.50;38.20;;;;;;5095068;28;20078;-37
2022/01/20 12:12:25;;;;;;;17.55;6.28;;;16.40;38.50;;;;;;5094568;28;20031;-38
2022/01/20 12:14:51;;;;;;;18.10;6.05;;;17.10;37.90;;;;;;5078990;28;20462;-37
2022/01/20 12:17:17;;;;;;;19.02;6.18;;;18.10;36.10;;;;;;5094608;28;20402;-37
2022/01/20 12:20:03;;;;;;;18.20;6.15;;;18.70;34.90;;;;;;5094409;28;20031;-37
2022/01/20 12:22:39;;;;;;;15.98;5.72;;;19.20;34.00;;;;;;5094636;28;20063;-38
2022/01/20 12:25:06;;;;;;;15.45;5.05;;;19.50;33.30;;;;;;5076892;28;20103;-37
2022/01/20 12:27:33;;;;;;;18.63;5.63;;;19.60;32.70;;;;;;5094275;28;20139;-38
2022/01/20 12:29:59;;;;;;;14.32;4.65;;;19.90;32.60;;;;;;5076962;28;20429;-38
2022/01/20 12:32:26;;;;;;;14.60;4.30;;;20.00;32.20;;;;;;5094588;28;20472;-37
2022/01/20 12:34:59;;;;;;;13.57;3.85;;;20.10;31.90;;;;;;5093824;28;20095;-38
2022/01/20 12:37:39;;;;;;;10.40;3.70;;;19.80;31.80;;;;;;5093858;28;20012;-38
2022/01/20 12:40:07;;;;;;;12.77;3.35;;;19.80;32.40;;;;;;5093353;28;20023;-37
2022/01/20 12:42:37;;;;;;;11.25;3.30;;;19.70;32.40;;;;;;5093368;28;20126;-39
2022/01/20 12:47:52;;;;;;;12.43;2.53;;;19.70;31.80;;;;;;5095328;28;20043;-38
2022/01/20 12:50:18;;;;;;;10.70;2.85;;;19.80;31.20;;;;;;5095159;28;20024;-38
2022/01/20 12:52:48;;;;;;;10.82;2.40;;;19.90;30.50;;;;;;5077117;28;20072;-38
2022/01/20 12:55:17;;;;;;;12.57;2.50;;;19.90;30.20;;;;;;5094595;28;20036;-36
2022/01/20 12:57:43;;;;;;;9.13;2.05;;;19.90;30.00;;;;;;5076663;28;20012;-36
2022/01/20 13:00:09;;;;;;;9.20;2.20;;;19.90;30.00;;;;;;5076782;28;20027;-38
2022/01/20 13:02:39;;;;;;;9.18;1.70;;;19.80;30.10;;;;;;5094610;28;20042;-35
2022/01/20 13:05:06;;;;;;;7.95;1.52;;;19.80;30.20;;;;;;5076221;28;20044;-36
2022/01/20 13:12:12;;;;;;;6.53;1.30;;;19.70;29.80;;;;;;4953264;29;20553;-36
2022/01/20 13:14:48;;;;;;;9.40;1.30;;;19.70;29.70;;;;;;4877735;29;20033;-36
2022/01/20 13:17:22;;;;;;;6.38;1.50;;;19.80;29.30;;;;;;4878547;29;20018;-36
2022/01/20 13:19:48;;;;;;;7.75;1.30;;;19.80;29.40;;;;;;4877668;29;20048;-36
2022/01/20 13:22:30;;;;;;;6.80;1.33;;;19.90;29.20;;;;;;4877337;29;20040;-36
2022/01/20 13:25:16;;;;;;;6.78;1.20;;;20.00;29.30;;;;;;4877628;29;20561;-36
2022/01/20 13:28:16;;;;;;;11.93;2.20;;;19.60;29.80;;;;;;4861315;29;20120;-37
2022/01/20 13:30:50;;;;;;;7.97;1.50;;;19.70;29.80;;;;;;4875607;29;20045;-37
2022/01/20 13:33:19;;;;;;;10.63;1.35;;;20.10;29.90;;;;;;4876524;29;20199;-37
2022/01/20 13:35:52;;;;;;;8.82;1.13;;;20.30;29.30;;;;;;4876362;29;20156;-37
2022/01/20 13:38:28;;;;;;;10.75;1.48;;;20.50;29.50;;;;;;4876714;29;20059;-37
2022/01/20 13:41:02;;;;;;;9.77;1.23;;;20.70;29.50;;;;;;4875618;29;20037;-37
2022/01/20 13:46:19;;;;;;;11.10;1.60;;;21.10;29.50;;;;;;4879383;28;20116;-37
2022/01/20 13:48:45;;;;;;;9.45;1.25;;;21.20;29.50;;;;;;4990541;28;20042;-36
2022/01/20 13:51:15;;;;;;;14.90;1.25;;;21.30;29.60;;;;;;5039400;28;20051;-36
2022/01/20 13:53:43;;;;;;;7.32;1.48;;;21.40;29.60;;;;;;5092391;28;20032;-36
2022/01/20 13:56:12;;;;;;;5.50;1.17;;;21.50;29.70;;;;;;5074363;28;20089;-35
2022/01/20 13:58:38;;;;;;;10.30;1.02;;;21.50;29.70;;;;;;5092632;28;20012;-35
2022/01/20 14:01:08;;;;;;;9.05;1.63;;;21.50;29.80;;;;;;5092335;28;20417;-34
2022/01/20 14:03:36;;;;;;;10.48;1.45;;;21.60;29.80;;;;;;5092571;28;20020;-36
2022/01/20 14:06:02;;;;;;;7.53;1.00;;;21.60;29.80;;;;;;5074159;28;20017;-37
2022/01/20 14:08:34;;;;;;;7.05;1.33;;;21.60;29.80;;;;;;5074229;28;20012;-36
2022/01/20 14:11:01;;;;;;;7.60;1.45;;;21.70;29.90;;;;;;5092217;28;20016;-36
2022/01/20 14:13:27;;;;;;;11.38;1.63;;;21.80;29.90;;;;;;5092378;28;20435;-36
2022/01/20 14:15:55;;;;;;;6.20;1.10;;;21.80;29.80;;;;;;5095518;28;20049;-37
2022/01/20 14:18:22;;;;;;;6.38;1.48;;;21.80;29.80;;;;;;5096178;28;20087;-38
2022/01/20 14:20:48;;;;;;;12.35;1.70;;;21.90;29.90;;;;;;5097375;28;20496;-37
2022/01/20 14:23:15;;;;;;;9.77;1.52;;;21.90;29.70;;;;;;5096618;28;20027;-35
2022/01/20 14:25:46;;;;;;;14.23;1.60;;;21.90;29.70;;;;;;5096636;28;20009;-35